Terminal Aerodrome Forecast
Issued by NWS

Home | Current Version | Previous Version | Text Only | Print | Product List | Glossary On
Versions: 1 2 3 4 5 6 7 8 9 10 11 12 13 14 15 16 17 18 19 20
000
FTUS43 KAPX 211743
TAFPLN
TAF
KPLN 211743Z 2118/2218 24011G20KT 6SM -SHSN OVC035
     FM212100 21010G18KT P6SM BKN120
     FM220100 22013KT P6SM SCT120 WS018/22035KT
     FM220800 22012KT P6SM OVC015 WS010/22040KT
     FM221000 21013KT 4SM -FZDZ OVC007 WS010/22035KT=

USA.gov is the U.S. government's official web portal to all federal, state and local government web resources and services.